ENTCENVA

Guest
Details From ENTC - Tromso Langnes
To ENVA - Vaernes
Flight Number -
Tags Generated
Created
Modified
Stats Distance 419 nm / 776 km
Max Altitude 0 ft / 0 m
Waypoints 3
Social Downloads 0
Likes 0
Share VATSIM

Download

Looking for another format? Having issues loading an existing format? Contact us
Advertisement - Login to hide

Notes

Generated

Route

ENTC TRM ENVA

ID Type Via Altitude Latitude Longitude Leg Dist Tot Dist Heading (true) Name
O ENTC APT - 0 ft / 0 m 69.67250˚ 18.91291˚ - 0 nm - -
TRM VOR - 0 ft / 0 m 63.52587˚ 10.89007˚ 415 nm 415 nm 211° / 204° TRONDHEIM VOR-DME
O ENVA APT - 0 ft / 0 m 63.46455˚ 10.92316˚ 3 nm 418 nm 166° / 166° Vaernes

Altitude Profile

Advertisement - Login to hide

Weather


0- 5 10 15 20 25 30 35+ Temperature / ° C

Clouds and Precipitation
Forecast for 2017-12-17 12:00 UTC. Updated an hour ago

Ground ~20,000 ft ~40,000 ft Winds

ENTC

Details ICAO ENTC (TOS)
Name Tromso Langnes
Region Norway
Timezone Europe/Oslo (UTC+1.0)
Stats Elevation 31 ft / 9 m (AMSL)
Location 69.682866° 18.919363°
Runways 1
Magnetic Variation 8.800° E

METAR

ENTC 171150Z 19015KT 9999 -SHSN FEW013 SCT040 BKN053 M00/M02 Q0997 NOSIG RMK WIND 2600FT 22011KT

Decode

TAF

TAF ENTC 171100Z 1712/1812 20012KT 9999 FEW015 BKN030 TEMPO 1714/1803 0800 SHSN VV006

Decode

Departure Runways

ID Width Length Bearing (true) Bearing (mag) Surface Threshold Offset Overrun Length
01 141 ft / 43 m 7,740 ft / 2,359 m 12.19° 3.39° Asphalt 0 ft / 0 m 289 ft / 88 m
19 141 ft / 43 m 7,740 ft / 2,359 m 192.21° 183.41° Asphalt 1,227 ft / 374 m 482 ft / 147 m

ENVA

Details ICAO ENVA (TRD)
Name Vaernes
Region Norway
Timezone Europe/Oslo (UTC+1.0)
Stats Elevation 56 ft / 17 m (AMSL)
Location 63.457605° 10.917980°
Runways 1
Magnetic Variation 3.496° E

METAR

ENVA 171150Z 05004KT 360V090 9999 SCT048 02/M05 Q1007 TEMPO 24010KT RMK WIND 670FT 20019KT

Decode

TAF

TAF ENVA 171100Z 1712/1812 12008KT 9999 FEW010 SCT040 BECMG 1802/1804 24020G30KT TEMPO 1803/1809 2000 SN VV008

Decode

Destination Runways

ID Width Length Bearing (true) Bearing (mag) Surface Threshold Offset Overrun Length
09 148 ft / 45 m 9,356 ft / 2,852 m 90.21° 86.71° Asphalt 984 ft / 300 m 0 ft / 0 m
27 148 ft / 45 m 9,356 ft / 2,852 m 270.26° 266.76° Asphalt 689 ft / 210 m 0 ft / 0 m

Approach Navaids

Runway Type Ident Frequency Range Bearing (true) Bearing (mag) Slope Elevation
09 Localiser TO 110.30 MHz 18 nm / 33 km 90.26° 86.76° - 31 ft / 9 m (AMSL)
09 Glidescope TO 110.30 MHz 10 nm / 19 km 90.23° 86.73° 3.00° 56 ft / 17 m (AMSL)
09 DME TO 110.30 MHz 18 nm / 33 km - - - 31 ft / 9 m (AMSL)
27 Localiser TD 109.90 MHz 18 nm / 33 km 270.20° 266.70° - 56 ft / 17 m (AMSL)
27 Glidescope TD 109.90 MHz 10 nm / 19 km 270.23° 266.73° 3.40° 56 ft / 17 m (AMSL)
27 DME TD 109.90 MHz 18 nm / 33 km - - - 78 ft / 24 m (AMSL)

Popular Alternatives